sensor_id;sensor_type;location;lat;lon;timestamp;pressure;altitude;pressure_sealevel;temperature;humidity
11936;BME280;6027;48.576;9.180;2023-10-19T00:00:14;95357.31;;;10.77;100.00
11936;BME280;6027;48.576;9.180;2023-10-19T00:02:49;95348.78;;;10.75;100.00
11936;BME280;6027;48.576;9.180;2023-10-19T00:05:18;95349.38;;;10.77;100.00
11936;BME280;6027;48.576;9.180;2023-10-19T00:07:45;95341.69;;;10.87;100.00
11936;BME280;6027;48.576;9.180;2023-10-19T00:10:11;95348.63;;;10.88;100.00
11936;BME280;6027;48.576;9.180;2023-10-19T00:12:40;95342.94;;;10.85;100.00
11936;BME280;6027;48.576;9.180;2023-10-19T00:15:06;95342.06;;;10.91;100.00
11936;BME280;6027;48.576;9.180;2023-10-19T00:17:32;95329.88;;;10.90;100.00
11936;BME280;6027;48.576;9.180;2023-10-19T00:19:58;95332.66;;;10.95;100.00
11936;BME280;6027;48.576;9.180;2023-10-19T00:22:43;95326.91;;;10.98;100.00
11936;BME280;6027;48.576;9.180;2023-10-19T00:25:09;95327.00;;;10.91;100.00
11936;BME280;6027;48.576;9.180;2023-10-19T00:27:39;95318.72;;;10.99;100.00
11936;BME280;6027;48.576;9.180;2023-10-19T00:30:05;95334.13;;;10.91;100.00
11936;BME280;6027;48.576;9.180;2023-10-19T00:32:32;95319.72;;;10.87;100.00
11936;BME280;6027;48.576;9.180;2023-10-19T00:34:59;95315.22;;;10.87;100.00
11936;BME280;6027;48.576;9.180;2023-10-19T00:37:33;95316.47;;;10.85;100.00
11936;BME280;6027;48.576;9.180;2023-10-19T00:40:08;95311.56;;;10.88;100.00
11936;BME280;6027;48.576;9.180;2023-10-19T00:42:58;95300.16;;;10.88;100.00
11936;BME280;6027;48.576;9.180;2023-10-19T00:45:28;95294.31;;;10.97;100.00
11936;BME280;6027;48.576;9.180;2023-10-19T00:47:54;95297.09;;;11.02;100.00
11936;BME280;6027;48.576;9.180;2023-10-19T00:50:20;95307.69;;;11.02;100.00
11936;BME280;6027;48.576;9.180;2023-10-19T00:52:48;95317.84;;;11.05;100.00
11936;BME280;6027;48.576;9.180;2023-10-19T00:55:18;95327.78;;;11.10;100.00
11936;BME280;6027;48.576;9.180;2023-10-19T00:57:47;95316.56;;;10.96;100.00
11936;BME280;6027;48.576;9.180;2023-10-19T01:00:14;95302.13;;;10.92;100.00
11936;BME280;6027;48.576;9.180;2023-10-19T01:02:57;95294.38;;;11.09;100.00
11936;BME280;6027;48.576;9.180;2023-10-19T01:05:26;95262.59;;;11.09;100.00
11936;BME280;6027;48.576;9.180;2023-10-19T01:07:58;95269.75;;;11.08;100.00
11936;BME280;6027;48.576;9.180;2023-10-19T01:10:27;95272.31;;;11.15;100.00
11936;BME280;6027;48.576;9.180;2023-10-19T01:12:53;95267.03;;;11.27;100.00
11936;BME280;6027;48.576;9.180;2023-10-19T01:15:20;95257.50;;;11.37;100.00
11936;BME280;6027;48.576;9.180;2023-10-19T01:17:58;95249.78;;;11.36;100.00
11936;BME280;6027;48.576;9.180;2023-10-19T01:20:34;95240.25;;;11.35;100.00
11936;BME280;6027;48.576;9.180;2023-10-19T01:23:16;95242.88;;;11.35;100.00
11936;BME280;6027;48.576;9.180;2023-10-19T01:25:55;95241.16;;;11.40;100.00
11936;BME280;6027;48.576;9.180;2023-10-19T01:28:22;95238.53;;;11.52;100.00
11936;BME280;6027;48.576;9.180;2023-10-19T01:30:51;95231.19;;;11.54;100.00
11936;BME280;6027;48.576;9.180;2023-10-19T01:33:18;95229.09;;;11.56;100.00
11936;BME280;6027;48.576;9.180;2023-10-19T01:35:44;95234.06;;;11.64;100.00
11936;BME280;6027;48.576;9.180;2023-10-19T01:38:29;95216.09;;;11.66;100.00
11936;BME280;6027;48.576;9.180;2023-10-19T01:41:01;95214.94;;;11.62;100.00
11936;BME280;6027;48.576;9.180;2023-10-19T01:43:31;95207.56;;;11.64;100.00
11936;BME280;6027;48.576;9.180;2023-10-19T01:46:00;95206.53;;;11.65;100.00
11936;BME280;6027;48.576;9.180;2023-10-19T01:48:30;95200.41;;;11.65;100.00
11936;BME280;6027;48.576;9.180;2023-10-19T01:51:04;95200.75;;;11.68;100.00
11936;BME280;6027;48.576;9.180;2023-10-19T01:53:33;95193.38;;;11.70;100.00
11936;BME280;6027;48.576;9.180;2023-10-19T01:56:02;95200.75;;;11.68;100.00
11936;BME280;6027;48.576;9.180;2023-10-19T01:58:33;95203.19;;;11.70;100.00
11936;BME280;6027;48.576;9.180;2023-10-19T02:01:03;95202.59;;;11.68;100.00
11936;BME280;6027;48.576;9.180;2023-10-19T02:03:34;95207.44;;;11.71;100.00
11936;BME280;6027;48.576;9.180;2023-10-19T02:06:03;95201.34;;;11.70;100.00
11936;BME280;6027;48.576;9.180;2023-10-19T02:08:36;95200.88;;;11.73;100.00
11936;BME280;6027;48.576;9.180;2023-10-19T02:11:06;95195.34;;;11.75;100.00
11936;BME280;6027;48.576;9.180;2023-10-19T02:13:46;95190.53;;;11.84;100.00
11936;BME280;6027;48.576;9.180;2023-10-19T02:16:13;95182.94;;;11.87;100.00
11936;BME280;6027;48.576;9.180;2023-10-19T02:18:45;95183.03;;;11.81;100.00
11936;BME280;6027;48.576;9.180;2023-10-19T02:21:10;95173.69;;;11.78;100.00
11936;BME280;6027;48.576;9.180;2023-10-19T02:23:40;95181.78;;;11.83;100.00
11936;BME280;6027;48.576;9.180;2023-10-19T02:26:10;95174.50;;;11.79;100.00
11936;BME280;6027;48.576;9.180;2023-10-19T02:28:39;95166.22;;;11.87;100.00
11936;BME280;6027;48.576;9.180;2023-10-19T02:31:05;95158.25;;;11.87;100.00
11936;BME280;6027;48.576;9.180;2023-10-19T02:33:42;95161.25;;;11.90;100.00
11936;BME280;6027;48.576;9.180;2023-10-19T02:36:12;95164.50;;;11.92;100.00
11936;BME280;6027;48.576;9.180;2023-10-19T02:38:39;95168.84;;;11.98;100.00
11936;BME280;6027;48.576;9.180;2023-10-19T02:41:05;95167.22;;;11.97;100.00
11936;BME280;6027;48.576;9.180;2023-10-19T02:43:31;95166.75;;;12.00;100.00
11936;BME280;6027;48.576;9.180;2023-10-19T02:45:59;95162.63;;;12.04;100.00
11936;BME280;6027;48.576;9.180;2023-10-19T02:48:25;95161.47;;;12.00;100.00
11936;BME280;6027;48.576;9.180;2023-10-19T02:50:50;95155.81;;;11.97;100.00
11936;BME280;6027;48.576;9.180;2023-10-19T02:53:15;95145.78;;;11.99;100.00
11936;BME280;6027;48.576;9.180;2023-10-19T02:55:44;95144.75;;;12.00;100.00
11936;BME280;6027;48.576;9.180;2023-10-19T02:58:09;95151.53;;;11.96;100.00
11936;BME280;6027;48.576;9.180;2023-10-19T03:00:37;95154.13;;;11.91;100.00
11936;BME280;6027;48.576;9.180;2023-10-19T03:03:03;95144.84;;;11.93;100.00
11936;BME280;6027;48.576;9.180;2023-10-19T03:05:30;95139.69;;;11.87;100.00
11936;BME280;6027;48.576;9.180;2023-10-19T03:08:16;95139.81;;;11.92;100.00
11936;BME280;6027;48.576;9.180;2023-10-19T03:11:04;95137.84;;;11.87;100.00
11936;BME280;6027;48.576;9.180;2023-10-19T03:13:49;95140.97;;;11.84;100.00
11936;BME280;6027;48.576;9.180;2023-10-19T03:16:17;95138.31;;;11.84;100.00
11936;BME280;6027;48.576;9.180;2023-10-19T03:18:42;95141.44;;;11.81;100.00
11936;BME280;6027;48.576;9.180;2023-10-19T03:21:08;95143.25;;;11.81;100.00
11936;BME280;6027;48.576;9.180;2023-10-19T03:23:36;95129.88;;;11.75;100.00
11936;BME280;6027;48.576;9.180;2023-10-19T03:26:04;95134.97;;;11.77;100.00
11936;BME280;6027;48.576;9.180;2023-10-19T03:28:29;95127.81;;;11.66;100.00
11936;BME280;6027;48.576;9.180;2023-10-19T03:31:00;95127.13;;;11.70;100.00
11936;BME280;6027;48.576;9.180;2023-10-19T03:33:25;95135.19;;;11.64;100.00
11936;BME280;6027;48.576;9.180;2023-10-19T03:35:53;95125.97;;;11.66;100.00
11936;BME280;6027;48.576;9.180;2023-10-19T03:38:20;95125.97;;;11.66;100.00
11936;BME280;6027;48.576;9.180;2023-10-19T03:40:49;95131.84;;;11.68;100.00
11936;BME280;6027;48.576;9.180;2023-10-19T03:43:20;95131.50;;;11.65;100.00
11936;BME280;6027;48.576;9.180;2023-10-19T03:45:48;95133.13;;;11.54;100.00
11936;BME280;6027;48.576;9.180;2023-10-19T03:48:19;95132.41;;;11.59;100.00
11936;BME280;6027;48.576;9.180;2023-10-19T03:50:55;95124.47;;;11.59;100.00
11936;BME280;6027;48.576;9.180;2023-10-19T03:53:22;95119.88;;;11.54;100.00
11936;BME280;6027;48.576;9.180;2023-10-19T03:55:49;95116.28;;;11.60;100.00
11936;BME280;6027;48.576;9.180;2023-10-19T03:58:18;95106.47;;;11.61;100.00
11936;BME280;6027;48.576;9.180;2023-10-19T04:00:46;95103.97;;;11.54;100.00
11936;BME280;6027;48.576;9.180;2023-10-19T04:03:11;95108.69;;;11.52;100.00
11936;BME280;6027;48.576;9.180;2023-10-19T04:05:37;95096.47;;;11.51;100.00
11936;BME280;6027;48.576;9.180;2023-10-19T04:08:06;95090.81;;;11.48;100.00
11936;BME280;6027;48.576;9.180;2023-10-19T04:10:39;95088.97;;;11.48;100.00
11936;BME280;6027;48.576;9.180;2023-10-19T04:13:12;95093.03;;;11.51;100.00
11936;BME280;6027;48.576;9.180;2023-10-19T04:15:38;95092.78;;;11.40;100.00
11936;BME280;6027;48.576;9.180;2023-10-19T04:18:04;95080.56;;;11.51;100.00
11936;BME280;6027;48.576;9.180;2023-10-19T04:20:36;95088.97;;;11.48;100.00
11936;BME280;6027;48.576;9.180;2023-10-19T04:23:20;95081.59;;;11.38;100.00
11936;BME280;6027;48.576;9.180;2023-10-19T04:26:00;95076.44;;;11.32;100.00
11936;BME280;6027;48.576;9.180;2023-10-19T04:28:31;95087.94;;;11.26;100.00
11936;BME280;6027;48.576;9.180;2023-10-19T04:30:57;95079.41;;;11.24;100.00
11936;BME280;6027;48.576;9.180;2023-10-19T04:33:30;95073.31;;;11.12;100.00
11936;BME280;6027;48.576;9.180;2023-10-19T04:35:57;95073.66;;;11.15;100.00
11936;BME280;6027;48.576;9.180;2023-10-19T04:38:26;95075.63;;;11.08;100.00
11936;BME280;6027;48.576;9.180;2023-10-19T04:40:51;95079.63;;;10.99;100.00
11936;BME280;6027;48.576;9.180;2023-10-19T04:43:16;95075.84;;;10.95;100.00
11936;BME280;6027;48.576;9.180;2023-10-19T04:45:42;95078.34;;;10.90;100.00
11936;BME280;6027;48.576;9.180;2023-10-19T04:48:10;95083.59;;;10.78;100.00
11936;BME280;6027;48.576;9.180;2023-10-19T04:50:35;95076.38;;;10.73;100.00
11936;BME280;6027;48.576;9.180;2023-10-19T04:53:02;95078.00;;;10.75;100.00
11936;BME280;6027;48.576;9.180;2023-10-19T04:55:29;95077.19;;;10.74;100.00
11936;BME280;6027;48.576;9.180;2023-10-19T04:57:55;95064.06;;;10.79;100.00
11936;BME280;6027;48.576;9.180;2023-10-19T05:00:22;95070.63;;;10.77;100.00
11936;BME280;6027;48.576;9.180;2023-10-19T05:02:50;95068.44;;;10.73;100.00
11936;BME280;6027;48.576;9.180;2023-10-19T05:05:17;95066.59;;;10.74;100.00
11936;BME280;6027;48.576;9.180;2023-10-19T05:07:43;95070.72;;;10.70;100.00
11936;BME280;6027;48.576;9.180;2023-10-19T05:10:09;95054.34;;;10.61;100.00
11936;BME280;6027;48.576;9.180;2023-10-19T05:12:35;95059.19;;;10.64;100.00
11936;BME280;6027;48.576;9.180;2023-10-19T05:15:00;95060.22;;;10.63;100.00
11936;BME280;6027;48.576;9.180;2023-10-19T05:17:26;95056.88;;;10.56;100.00
11936;BME280;6027;48.576;9.180;2023-10-19T05:19:52;95054.03;;;10.58;100.00
11936;BME280;6027;48.576;9.180;2023-10-19T05:22:18;95054.72;;;10.65;100.00
11936;BME280;6027;48.576;9.180;2023-10-19T05:24:43;95059.41;;;10.63;100.00
11936;BME280;6027;48.576;9.180;2023-10-19T05:27:09;95055.50;;;10.65;100.00
11936;BME280;6027;48.576;9.180;2023-10-19T05:29:35;95050.44;;;10.64;100.00
11936;BME280;6027;48.576;9.180;2023-10-19T05:32:01;95055.06;;;10.68;100.00
11936;BME280;6027;48.576;9.180;2023-10-19T05:34:28;95067.50;;;10.68;100.00
11936;BME280;6027;48.576;9.180;2023-10-19T05:36:54;95060.59;;;10.67;100.00
11936;BME280;6027;48.576;9.180;2023-10-19T05:39:23;95053.00;;;10.70;100.00
11936;BME280;6027;48.576;9.180;2023-10-19T05:41:53;95058.44;;;10.76;100.00
11936;BME280;6027;48.576;9.180;2023-10-19T05:44:19;95043.09;;;10.78;100.00
11936;BME280;6027;48.576;9.180;2023-10-19T05:46:45;95053.94;;;10.76;100.00
11936;BME280;6027;48.576;9.180;2023-10-19T05:49:12;95047.13;;;10.80;100.00
11936;BME280;6027;48.576;9.180;2023-10-19T05:51:37;95045.06;;;10.82;100.00
11936;BME280;6027;48.576;9.180;2023-10-19T05:54:04;95044.63;;;10.85;100.00
11936;BME280;6027;48.576;9.180;2023-10-19T05:56:30;95044.38;;;10.87;100.00
11936;BME280;6027;48.576;9.180;2023-10-19T05:58:56;95036.44;;;10.87;100.00
11936;BME280;6027;48.576;9.180;2023-10-19T06:01:23;95050.50;;;10.87;100.00
11936;BME280;6027;48.576;9.180;2023-10-19T06:03:48;95053.94;;;10.88;100.00
11936;BME280;6027;48.576;9.180;2023-10-19T06:06:14;95063.84;;;10.92;100.00
11936;BME280;6027;48.576;9.180;2023-10-19T06:08:42;95064.66;;;10.93;100.00
11936;BME280;6027;48.576;9.180;2023-10-19T06:11:08;95062.38;;;10.96;100.00
11936;BME280;6027;48.576;9.180;2023-10-19T06:13:33;95063.63;;;10.94;100.00
11936;BME280;6027;48.576;9.180;2023-10-19T06:15:59;95055.69;;;10.94;100.00
11936;BME280;6027;48.576;9.180;2023-10-19T06:18:24;95053.13;;;10.99;100.00
11936;BME280;6027;48.576;9.180;2023-10-19T06:20:50;95053.50;;;11.02;100.00
11936;BME280;6027;48.576;9.180;2023-10-19T06:23:16;95051.44;;;11.04;100.00
11936;BME280;6027;48.576;9.180;2023-10-19T06:25:43;95049.81;;;11.03;100.00
11936;BME280;6027;48.576;9.180;2023-10-19T06:28:09;95052.00;;;11.06;100.00
11936;BME280;6027;48.576;9.180;2023-10-19T06:30:36;95045.69;;;11.07;100.00
11936;BME280;6027;48.576;9.180;2023-10-19T06:33:02;95040.97;;;11.10;100.00
11936;BME280;6027;48.576;9.180;2023-10-19T06:35:29;95047.50;;;11.19;100.00
11936;BME280;6027;48.576;9.180;2023-10-19T06:37:57;95050.28;;;11.24;100.00
11936;BME280;6027;48.576;9.180;2023-10-19T06:40:24;95049.25;;;11.25;100.00
11936;BME280;6027;48.576;9.180;2023-10-19T06:42:50;95054.91;;;11.28;100.00
11936;BME280;6027;48.576;9.180;2023-10-19T06:45:17;95048.91;;;11.33;100.00
11936;BME280;6027;48.576;9.180;2023-10-19T06:47:46;95041.28;;;11.25;100.00
11936;BME280;6027;48.576;9.180;2023-10-19T06:50:13;95050.63;;;11.27;100.00
11936;BME280;6027;48.576;9.180;2023-10-19T06:52:42;95044.66;;;11.32;100.00
11936;BME280;6027;48.576;9.180;2023-10-19T06:55:09;95054.22;;;11.33;100.00
11936;BME280;6027;48.576;9.180;2023-10-19T06:57:52;95046.25;;;11.33;100.00
11936;BME280;6027;48.576;9.180;2023-10-19T07:00:20;95045.53;;;11.37;100.00
11936;BME280;6027;48.576;9.180;2023-10-19T07:02:50;95053.38;;;11.44;100.00
11936;BME280;6027;48.576;9.180;2023-10-19T07:05:21;95052.00;;;11.53;100.00
11936;BME280;6027;48.576;9.180;2023-10-19T07:07:50;95060.75;;;11.54;100.00
11936;BME280;6027;48.576;9.180;2023-10-19T07:10:17;95062.59;;;11.53;100.00
11936;BME280;6027;48.576;9.180;2023-10-19T07:12:45;95059.81;;;11.60;100.00
11936;BME280;6027;48.576;9.180;2023-10-19T07:15:13;95052.66;;;11.60;100.00
11936;BME280;6027;48.576;9.180;2023-10-19T07:17:45;95051.75;;;11.66;100.00
11936;BME280;6027;48.576;9.180;2023-10-19T07:20:14;95050.72;;;11.67;100.00
11936;BME280;6027;48.576;9.180;2023-10-19T07:23:03;95042.19;;;11.65;100.00
11936;BME280;6027;48.576;9.180;2023-10-19T07:25:36;95045.97;;;11.69;100.00
11936;BME280;6027;48.576;9.180;2023-10-19T07:28:12;95038.03;;;11.69;100.00
11936;BME280;6027;48.576;9.180;2023-10-19T07:30:39;95041.56;;;11.75;100.00
11936;BME280;6027;48.576;9.180;2023-10-19T07:33:05;95041.94;;;11.79;100.00
11936;BME280;6027;48.576;9.180;2023-10-19T07:35:34;95037.31;;;11.86;100.00
11936;BME280;6027;48.576;9.180;2023-10-19T07:38:00;95029.94;;;11.88;100.00
11936;BME280;6027;48.576;9.180;2023-10-19T07:40:27;95033.47;;;11.93;100.00
11936;BME280;6027;48.576;9.180;2023-10-19T07:42:53;95040.75;;;11.98;100.00
11936;BME280;6027;48.576;9.180;2023-10-19T07:45:20;95030.81;;;12.05;100.00
11936;BME280;6027;48.576;9.180;2023-10-19T07:47:46;95026.06;;;12.07;100.00
11936;BME280;6027;48.576;9.180;2023-10-19T07:50:12;95035.50;;;12.15;100.00
11936;BME280;6027;48.576;9.180;2023-10-19T07:52:49;95027.28;;;12.16;100.00
11936;BME280;6027;48.576;9.180;2023-10-19T07:55:16;95020.00;;;12.23;100.00
11936;BME280;6027;48.576;9.180;2023-10-19T07:57:43;95022.53;;;12.30;100.00
11936;BME280;6027;48.576;9.180;2023-10-19T08:00:10;95029.19;;;12.32;100.00
11936;BME280;6027;48.576;9.180;2023-10-19T08:02:38;95022.13;;;12.38;100.00
11936;BME280;6027;48.576;9.180;2023-10-19T08:05:10;95016.09;;;12.42;100.00
11936;BME280;6027;48.576;9.180;2023-10-19T08:07:37;95013.56;;;12.48;100.00
11936;BME280;6027;48.576;9.180;2023-10-19T08:10:06;95012.50;;;12.49;100.00
11936;BME280;6027;48.576;9.180;2023-10-19T08:12:33;95019.16;;;12.51;100.00
11936;BME280;6027;48.576;9.180;2023-10-19T08:14:59;95022.16;;;12.55;100.00
11936;BME280;6027;48.576;9.180;2023-10-19T08:17:25;95019.34;;;12.61;100.00
11936;BME280;6027;48.576;9.180;2023-10-19T08:19:50;95026.59;;;12.66;100.00
11936;BME280;6027;48.576;9.180;2023-10-19T08:22:16;95022.25;;;12.76;100.00
11936;BME280;6027;48.576;9.180;2023-10-19T08:24:41;95026.94;;;12.86;100.00
11936;BME280;6027;48.576;9.180;2023-10-19T08:27:11;95024.34;;;12.91;100.00
11936;BME280;6027;48.576;9.180;2023-10-19T08:29:38;95025.47;;;12.95;100.00
11936;BME280;6027;48.576;9.180;2023-10-19T08:32:04;95022.75;;;13.07;100.00
11936;BME280;6027;48.576;9.180;2023-10-19T08:34:35;95017.84;;;13.16;100.00
11936;BME280;6027;48.576;9.180;2023-10-19T08:37:05;95009.47;;;13.24;100.00
11936;BME280;6027;48.576;9.180;2023-10-19T08:39:32;95021.75;;;13.30;100.00
11936;BME280;6027;48.576;9.180;2023-10-19T08:42:04;95013.94;;;13.40;100.00
11936;BME280;6027;48.576;9.180;2023-10-19T08:44:31;95010.31;;;13.46;100.00
11936;BME280;6027;48.576;9.180;2023-10-19T08:46:56;95009.31;;;13.52;100.00
11936;BME280;6027;48.576;9.180;2023-10-19T08:49:25;95006.97;;;13.56;100.00
11936;BME280;6027;48.576;9.180;2023-10-19T08:51:53;95008.97;;;13.65;100.00
11936;BME280;6027;48.576;9.180;2023-10-19T08:54:19;95020.84;;;13.79;100.00
11936;BME280;6027;48.576;9.180;2023-10-19T08:56:45;95015.59;;;13.85;100.00
11936;BME280;6027;48.576;9.180;2023-10-19T08:59:13;95022.56;;;13.91;100.00
11936;BME280;6027;48.576;9.180;2023-10-19T09:01:41;95009.81;;;13.93;100.00
11936;BME280;6027;48.576;9.180;2023-10-19T09:04:10;95012.81;;;13.96;100.00
11936;BME280;6027;48.576;9.180;2023-10-19T09:06:39;95004.06;;;14.01;100.00
11936;BME280;6027;48.576;9.180;2023-10-19T09:09:12;95010.00;;;14.08;100.00
11936;BME280;6027;48.576;9.180;2023-10-19T09:11:47;95013.78;;;14.12;100.00
11936;BME280;6027;48.576;9.180;2023-10-19T09:14:14;95011.66;;;14.14;100.00
11936;BME280;6027;48.576;9.180;2023-10-19T09:17:09;95005.28;;;14.15;100.00
11936;BME280;6027;48.576;9.180;2023-10-19T09:19:37;94999.72;;;14.16;100.00
11936;BME280;6027;48.576;9.180;2023-10-19T09:22:04;94995.19;;;14.17;100.00
11936;BME280;6027;48.576;9.180;2023-10-19T09:24:34;94999.00;;;14.26;100.00
11936;BME280;6027;48.576;9.180;2023-10-19T09:27:02;94995.66;;;14.36;100.00
11936;BME280;6027;48.576;9.180;2023-10-19T09:29:27;94987.38;;;14.32;100.00
11936;BME280;6027;48.576;9.180;2023-10-19T09:31:54;94988.47;;;14.36;100.00
11936;BME280;6027;48.576;9.180;2023-10-19T09:34:24;94992.50;;;14.39;100.00
11936;BME280;6027;48.576;9.180;2023-10-19T09:36:57;94978.06;;;14.35;100.00
11936;BME280;6027;48.576;9.180;2023-10-19T09:39:24;94978.13;;;14.40;100.00
11936;BME280;6027;48.576;9.180;2023-10-19T09:41:51;94986.97;;;14.45;100.00
11936;BME280;6027;48.576;9.180;2023-10-19T09:44:20;94981.16;;;14.48;100.00
11936;BME280;6027;48.576;9.180;2023-10-19T09:46:50;94977.44;;;14.49;100.00
11936;BME280;6027;48.576;9.180;2023-10-19T09:49:19;94979.34;;;14.54;100.00
11936;BME280;6027;48.576;9.180;2023-10-19T09:51:45;94973.22;;;14.54;100.00
11936;BME280;6027;48.576;9.180;2023-10-19T09:54:22;94979.91;;;14.56;100.00
11936;BME280;6027;48.576;9.180;2023-10-19T09:56:58;94974.63;;;14.61;100.00
11936;BME280;6027;48.576;9.180;2023-10-19T09:59:33;94976.50;;;14.66;100.00
11936;BME280;6027;48.576;9.180;2023-10-19T10:02:13;94978.13;;;14.67;100.00
11936;BME280;6027;48.576;9.180;2023-10-19T10:04:41;94971.19;;;14.66;100.00
11936;BME280;6027;48.576;9.180;2023-10-19T10:07:09;94979.72;;;14.68;100.00
11936;BME280;6027;48.576;9.180;2023-10-19T10:09:41;94981.88;;;14.71;100.00
11936;BME280;6027;48.576;9.180;2023-10-19T10:12:23;94973.34;;;14.69;100.00
11936;BME280;6027;48.576;9.180;2023-10-19T10:15:00;94976.59;;;14.76;100.00
11936;BME280;6027;48.576;9.180;2023-10-19T10:17:27;94978.72;;;14.74;100.00
11936;BME280;6027;48.576;9.180;2023-10-19T10:19:55;94977.38;;;14.71;100.00
11936;BME280;6027;48.576;9.180;2023-10-19T10:22:22;94981.63;;;14.72;100.00
11936;BME280;6027;48.576;9.180;2023-10-19T10:24:54;94983.53;;;14.77;100.00
11936;BME280;6027;48.576;9.180;2023-10-19T10:27:21;94980.88;;;14.77;100.00
11936;BME280;6027;48.576;9.180;2023-10-19T10:30:05;94978.53;;;14.80;100.00
11936;BME280;6027;48.576;9.180;2023-10-19T10:38:05;94974.44;;;14.73;100.00
11936;BME280;6027;48.576;9.180;2023-10-19T10:40:41;94977.06;;;14.68;100.00
11936;BME280;6027;48.576;9.180;2023-10-19T10:43:07;94974.91;;;14.65;100.00
11936;BME280;6027;48.576;9.180;2023-10-19T10:45:33;94981.94;;;14.76;100.00
11936;BME280;6027;48.576;9.180;2023-10-19T10:47:58;94970.72;;;14.74;100.00
11936;BME280;6027;48.576;9.180;2023-10-19T10:50:26;94978.72;;;14.74;100.00
11936;BME280;6027;48.576;9.180;2023-10-19T10:52:53;94969.72;;;14.80;100.00
11936;BME280;6027;48.576;9.180;2023-10-19T10:55:23;94982.25;;;14.79;100.00
11936;BME280;6027;48.576;9.180;2023-10-19T10:57:50;94978.41;;;14.70;100.00
11936;BME280;6027;48.576;9.180;2023-10-19T11:00:16;94976.31;;;14.72;100.00
11936;BME280;6027;48.576;9.180;2023-10-19T11:02:42;94981.19;;;14.80;100.00
11936;BME280;6027;48.576;9.180;2023-10-19T11:05:16;94974.00;;;14.81;100.00
11936;BME280;6027;48.576;9.180;2023-10-19T11:08:11;94965.50;;;14.89;100.00
11936;BME280;6027;48.576;9.180;2023-10-19T11:10:42;94970.59;;;14.91;100.00
11936;BME280;6027;48.576;9.180;2023-10-19T11:13:10;94971.91;;;14.88;100.00
11936;BME280;6027;48.576;9.180;2023-10-19T11:15:37;94983.06;;;14.85;100.00
11936;BME280;6027;48.576;9.180;2023-10-19T11:18:04;94979.09;;;14.88;100.00
11936;BME280;6027;48.576;9.180;2023-10-19T11:20:29;94977.28;;;14.93;100.00
11936;BME280;6027;48.576;9.180;2023-10-19T11:22:57;94980.50;;;14.95;100.00
11936;BME280;6027;48.576;9.180;2023-10-19T11:25:27;94973.03;;;14.97;100.00
11936;BME280;6027;48.576;9.180;2023-10-19T11:27:58;94970.13;;;14.99;100.00
11936;BME280;6027;48.576;9.180;2023-10-19T11:30:28;94968.53;;;15.03;100.00
11936;BME280;6027;48.576;9.180;2023-10-19T11:32:55;94969.06;;;15.05;100.00
11936;BME280;6027;48.576;9.180;2023-10-19T11:35:29;94958.22;;;15.11;100.00
11936;BME280;6027;48.576;9.180;2023-10-19T11:37:57;94960.63;;;15.13;100.00
11936;BME280;6027;48.576;9.180;2023-10-19T11:40:24;94957.63;;;15.04;100.00
11936;BME280;6027;48.576;9.180;2023-10-19T11:42:51;94958.75;;;15.13;100.00
11936;BME280;6027;48.576;9.180;2023-10-19T11:45:17;94962.53;;;15.17;100.00
11936;BME280;6027;48.576;9.180;2023-10-19T11:47:44;94966.00;;;15.18;100.00
11936;BME280;6027;48.576;9.180;2023-10-19T11:50:11;94950.22;;;15.11;100.00
11936;BME280;6027;48.576;9.180;2023-10-19T11:52:44;94941.19;;;15.17;100.00
11936;BME280;6027;48.576;9.180;2023-10-19T11:55:11;94936.66;;;15.23;100.00
11936;BME280;6027;48.576;9.180;2023-10-19T11:57:39;94929.25;;;15.30;100.00
11936;BME280;6027;48.576;9.180;2023-10-19T12:00:06;94923.38;;;15.28;100.00
11936;BME280;6027;48.576;9.180;2023-10-19T12:02:37;94912.97;;;15.27;100.00
11936;BME280;6027;48.576;9.180;2023-10-19T12:05:06;94918.56;;;15.25;100.00
11936;BME280;6027;48.576;9.180;2023-10-19T12:07:36;94901.53;;;15.31;100.00
11936;BME280;6027;48.576;9.180;2023-10-19T12:10:02;94890.91;;;15.36;100.00
11936;BME280;6027;48.576;9.180;2023-10-19T12:12:28;94880.22;;;15.31;100.00
11936;BME280;6027;48.576;9.180;2023-10-19T12:14:54;94866.06;;;15.26;100.00
11936;BME280;6027;48.576;9.180;2023-10-19T12:17:20;94854.56;;;15.15;100.00
11936;BME280;6027;48.576;9.180;2023-10-19T12:19:47;94839.84;;;15.07;100.00
11936;BME280;6027;48.576;9.180;2023-10-19T12:22:13;94845.97;;;15.08;100.00
11936;BME280;6027;48.576;9.180;2023-10-19T12:24:38;94859.56;;;15.06;100.00
11936;BME280;6027;48.576;9.180;2023-10-19T12:27:04;94863.28;;;15.05;100.00
11936;BME280;6027;48.576;9.180;2023-10-19T12:29:29;94874.47;;;15.02;100.00
11936;BME280;6027;48.576;9.180;2023-10-19T12:31:57;94886.22;;;15.06;100.00
11936;BME280;6027;48.576;9.180;2023-10-19T12:34:22;94880.91;;;15.11;100.00
11936;BME280;6027;48.576;9.180;2023-10-19T12:36:48;94880.16;;;15.16;100.00
11936;BME280;6027;48.576;9.180;2023-10-19T12:39:15;94884.41;;;15.17;100.00
11936;BME280;6027;48.576;9.180;2023-10-19T12:41:59;94882.00;;;15.15;100.00
11936;BME280;6027;48.576;9.180;2023-10-19T12:44:26;94881.75;;;15.17;100.00
11936;BME280;6027;48.576;9.180;2023-10-19T12:46:55;94877.78;;;15.25;100.00
11936;BME280;6027;48.576;9.180;2023-10-19T12:49:22;94882.59;;;15.28;100.00
11936;BME280;6027;48.576;9.180;2023-10-19T12:51:52;94876.97;;;15.24;100.00
11936;BME280;6027;48.576;9.180;2023-10-19T12:54:18;94876.72;;;15.26;100.00
11936;BME280;6027;48.576;9.180;2023-10-19T12:56:43;94882.06;;;15.31;100.00
11936;BME280;6027;48.576;9.180;2023-10-19T12:59:09;94879.66;;;15.29;100.00
11936;BME280;6027;48.576;9.180;2023-10-19T13:01:35;94873.53;;;15.29;100.00
11936;BME280;6027;48.576;9.180;2023-10-19T13:04:01;94869.31;;;15.38;100.00
11936;BME280;6027;48.576;9.180;2023-10-19T13:06:31;94858.91;;;15.36;100.00
11936;BME280;6027;48.576;9.180;2023-10-19T13:08:58;94859.97;;;15.40;100.00
11936;BME280;6027;48.576;9.180;2023-10-19T13:11:24;94860.78;;;15.41;100.00
11936;BME280;6027;48.576;9.180;2023-10-19T13:13:49;94862.94;;;15.49;100.00